createdAt,value
2018-10-09T00:00:06.533Z,86.47
2018-10-09T00:02:35.927Z,86.77
2018-10-09T00:05:05.823Z,86.00
2018-10-09T00:07:35.350Z,86.36
2018-10-09T00:10:04.868Z,85.96
2018-10-09T00:12:34.220Z,86.04
2018-10-09T00:15:03.685Z,86.50
2018-10-09T00:17:33.034Z,86.61
2018-10-09T00:20:02.442Z,86.11
2018-10-09T00:22:31.859Z,86.75
2018-10-09T00:25:01.258Z,86.65
2018-10-09T00:27:30.619Z,86.16
2018-10-09T00:30:00.044Z,86.15
2018-10-09T00:32:29.483Z,86.96
2018-10-09T00:34:58.835Z,86.65
2018-10-09T00:37:28.217Z,87.62
2018-10-09T00:39:57.665Z,87.31
2018-10-09T00:42:27.036Z,87.56
2018-10-09T00:44:56.482Z,87.36
2018-10-09T00:47:25.864Z,88.38
2018-10-09T00:49:55.303Z,88.21
2018-10-09T00:52:24.709Z,87.82
2018-10-09T00:54:54.156Z,87.15
2018-10-09T00:57:23.515Z,87.20
2018-10-09T00:59:52.919Z,87.74
2018-10-09T01:02:22.360Z,87.33
2018-10-09T01:04:51.812Z,86.73
2018-10-09T01:07:21.246Z,86.67
2018-10-09T01:09:50.636Z,86.71
2018-10-09T01:12:20.100Z,86.41
2018-10-09T01:14:49.525Z,85.96
2018-10-09T01:17:18.963Z,86.27
2018-10-09T01:19:48.392Z,85.89
2018-10-09T01:22:17.818Z,86.76
2018-10-09T01:24:47.197Z,86.62
2018-10-09T01:27:16.560Z,86.22
2018-10-09T01:29:45.943Z,86.54
2018-10-09T01:32:15.314Z,85.68
2018-10-09T01:34:44.723Z,85.46
2018-10-09T01:37:14.107Z,85.71
2018-10-09T01:39:43.564Z,85.05
2018-10-09T01:42:12.906Z,84.83
2018-10-09T01:44:42.277Z,84.61
2018-10-09T01:47:11.643Z,84.70
2018-10-09T01:49:40.988Z,85.07
2018-10-09T01:52:10.409Z,85.05
2018-10-09T01:54:39.767Z,85.04
2018-10-09T01:57:09.149Z,85.79
2018-10-09T01:59:38.523Z,85.97
2018-10-09T02:02:07.865Z,86.00
2018-10-09T02:04:37.303Z,86.27
2018-10-09T02:07:06.923Z,86.78
2018-10-09T02:09:36.327Z,86.73
2018-10-09T02:12:05.751Z,86.88
2018-10-09T02:14:35.198Z,87.62
2018-10-09T02:17:04.601Z,87.50
2018-10-09T02:19:33.938Z,87.64
2018-10-09T02:22:03.395Z,88.15
2018-10-09T02:24:32.747Z,89.04
2018-10-09T02:27:02.260Z,88.76
2018-10-09T02:29:31.651Z,88.77
2018-10-09T02:32:01.027Z,88.09
2018-10-09T02:34:30.406Z,88.25
2018-10-09T02:36:59.760Z,88.62
2018-10-09T02:39:29.140Z,88.62
2018-10-09T02:41:58.543Z,88.63
2018-10-09T02:44:27.939Z,88.73
2018-10-09T02:46:57.275Z,88.64
2018-10-09T02:49:26.762Z,88.46
2018-10-09T02:51:56.127Z,89.13
2018-10-09T02:54:25.506Z,88.53
2018-10-09T02:56:54.918Z,88.98
2018-10-09T02:59:24.257Z,89.07
2018-10-09T03:01:53.774Z,89.31
2018-10-09T03:04:23.114Z,89.02
2018-10-09T03:06:52.470Z,88.78
2018-10-09T03:09:21.858Z,88.34
2018-10-09T03:11:51.314Z,89.34
2018-10-09T03:14:20.692Z,88.75
2018-10-09T03:16:50.057Z,89.11
2018-10-09T03:19:19.423Z,88.80
2018-10-09T03:21:48.836Z,89.23
2018-10-09T03:24:18.203Z,89.53
2018-10-09T03:26:47.619Z,89.64
2018-10-09T03:29:16.999Z,90.11
2018-10-09T03:31:46.379Z,90.06
2018-10-09T03:34:15.791Z,90.65
2018-10-09T03:36:45.155Z,89.90
2018-10-09T03:39:14.542Z,90.49
2018-10-09T03:41:43.902Z,90.24
2018-10-09T03:44:13.351Z,90.53
2018-10-09T03:46:42.844Z,90.00
2018-10-09T03:49:12.287Z,90.04
2018-10-09T03:51:41.707Z,90.41
2018-10-09T03:54:11.046Z,89.99
2018-10-09T03:56:40.459Z,90.35
2018-10-09T03:59:09.895Z,90.41
2018-10-09T04:01:39.524Z,89.88
2018-10-09T04:04:08.903Z,89.73
2018-10-09T04:06:38.388Z,89.55
2018-10-09T04:09:12.604Z,89.41
2018-10-09T04:11:42.432Z,90.07
2018-10-09T04:14:11.813Z,89.82
2018-10-09T04:16:41.207Z,89.75
2018-10-09T04:19:10.585Z,90.60
2018-10-09T04:21:40.020Z,89.57
2018-10-09T04:24:09.468Z,89.91
2018-10-09T04:26:38.860Z,89.90
2018-10-09T04:29:08.215Z,90.14
2018-10-09T04:31:37.580Z,90.62
2018-10-09T04:34:07.780Z,90.28
2018-10-09T04:36:37.194Z,90.44
2018-10-09T04:39:08.962Z,90.70
2018-10-09T04:41:38.380Z,91.03
2018-10-09T04:44:07.873Z,91.29
2018-10-09T04:46:37.204Z,91.22
2018-10-09T04:49:06.595Z,90.68
2018-10-09T04:51:35.930Z,90.57
2018-10-09T04:54:05.347Z,88.93
2018-10-09T04:56:34.700Z,89.73
2018-10-09T04:59:04.117Z,90.33
2018-10-09T05:01:33.504Z,91.42
2018-10-09T05:04:02.924Z,92.09
2018-10-09T05:06:32.307Z,92.37
2018-10-09T05:09:01.683Z,92.50
2018-10-09T05:11:31.107Z,92.49
2018-10-09T05:14:00.477Z,91.60
2018-10-09T05:16:29.884Z,91.36
2018-10-09T05:18:59.246Z,91.97
2018-10-09T05:21:28.608Z,91.74
2018-10-09T05:23:58.103Z,91.91
2018-10-09T05:26:27.455Z,91.56
2018-10-09T05:28:56.866Z,92.07
2018-10-09T05:31:26.273Z,91.75
2018-10-09T05:33:55.709Z,91.48
2018-10-09T05:36:25.179Z,91.54
2018-10-09T05:38:54.595Z,91.56
2018-10-09T05:41:23.971Z,91.31
2018-10-09T05:43:53.360Z,91.39
2018-10-09T05:46:22.788Z,91.18
2018-10-09T05:48:52.130Z,90.82
2018-10-09T05:51:21.557Z,91.59
2018-10-09T05:53:50.955Z,91.41
2018-10-09T05:56:20.316Z,91.53
2018-10-09T05:58:49.722Z,91.85
2018-10-09T06:01:19.172Z,91.75
2018-10-09T06:03:48.627Z,92.20
2018-10-09T06:06:18.003Z,92.55
2018-10-09T06:08:48.331Z,92.34
2018-10-09T06:11:17.727Z,92.24
2018-10-09T06:13:47.183Z,92.03
2018-10-09T06:16:16.609Z,92.34
2018-10-09T06:18:45.987Z,92.45
2018-10-09T06:21:15.395Z,92.65
2018-10-09T06:23:44.759Z,92.50
2018-10-09T06:26:14.180Z,92.56
2018-10-09T06:28:43.548Z,92.21
2018-10-09T06:31:12.901Z,92.08
2018-10-09T06:33:42.381Z,92.46
2018-10-09T06:36:11.751Z,92.07
2018-10-09T06:38:41.193Z,92.22
2018-10-09T06:41:10.604Z,91.96
2018-10-09T06:43:39.944Z,91.56
2018-10-09T06:46:09.358Z,92.22
2018-10-09T06:48:38.675Z,91.84
2018-10-09T06:51:08.087Z,91.79
2018-10-09T06:53:37.514Z,91.84
2018-10-09T06:56:06.839Z,92.01
2018-10-09T06:58:36.299Z,91.87
2018-10-09T07:01:05.741Z,91.84
2018-10-09T07:03:35.105Z,91.60
2018-10-09T07:06:04.521Z,91.54
2018-10-09T07:08:34.331Z,91.35
2018-10-09T07:11:03.767Z,90.74
2018-10-09T07:13:33.307Z,90.01
2018-10-09T07:16:02.680Z,89.21
2018-10-09T07:18:32.140Z,88.78
2018-10-09T07:21:01.531Z,88.16
2018-10-09T07:23:30.894Z,87.35
2018-10-09T07:26:00.296Z,87.01
2018-10-09T07:28:30.552Z,87.43
2018-10-09T07:30:59.959Z,86.75
2018-10-09T07:33:29.409Z,86.12
2018-10-09T07:35:58.871Z,85.97
2018-10-09T07:38:28.562Z,84.48
2018-10-09T07:40:57.954Z,84.47
2018-10-09T07:43:27.324Z,84.39
2018-10-09T07:45:56.690Z,83.40
2018-10-09T07:48:26.132Z,82.46
2018-10-09T07:50:55.541Z,82.12
2018-10-09T07:53:24.948Z,82.00
2018-10-09T07:55:54.345Z,82.08
2018-10-09T07:58:24.025Z,81.54
2018-10-09T08:00:53.491Z,81.02
2018-10-09T08:03:22.964Z,80.65
2018-10-09T08:05:52.359Z,80.16
2018-10-09T08:08:22.014Z,80.46
2018-10-09T08:10:51.478Z,80.24
2018-10-09T08:13:20.858Z,79.52
2018-10-09T08:15:50.263Z,79.46
2018-10-09T08:18:19.771Z,79.30
2018-10-09T08:20:49.140Z,79.40
2018-10-09T08:23:18.539Z,79.05
2018-10-09T08:25:47.954Z,79.25
2018-10-09T08:28:17.367Z,78.81
2018-10-09T08:30:46.783Z,78.39
2018-10-09T08:33:16.211Z,78.08
2018-10-09T08:35:45.612Z,77.75
2018-10-09T08:38:15.030Z,77.01
2018-10-09T08:40:44.428Z,77.32
2018-10-09T08:43:13.814Z,77.69
2018-10-09T08:45:43.531Z,77.15
2018-10-09T08:48:12.909Z,76.79
2018-10-09T08:50:42.358Z,76.86
2018-10-09T08:53:11.737Z,76.26
2018-10-09T08:55:42.328Z,77.29
2018-10-09T08:58:11.724Z,76.35
2018-10-09T09:00:41.132Z,75.99
2018-10-09T09:03:10.544Z,76.58
2018-10-09T09:05:40.626Z,76.71
2018-10-09T09:08:10.145Z,76.62
2018-10-09T09:10:39.515Z,76.17
2018-10-09T09:13:08.919Z,76.33
2018-10-09T09:15:39.095Z,76.61
2018-10-09T09:18:08.527Z,76.16
2018-10-09T09:20:38.097Z,75.55
2018-10-09T09:23:07.404Z,75.62
2018-10-09T09:25:37.009Z,75.74
2018-10-09T09:28:06.649Z,76.11
2018-10-09T09:30:36.130Z,76.05
2018-10-09T09:33:05.535Z,75.90
2018-10-09T09:35:35.040Z,75.82
2018-10-09T09:38:04.480Z,76.27
2018-10-09T09:40:33.983Z,75.62
2018-10-09T09:43:03.488Z,75.79
2018-10-09T09:45:32.831Z,75.89
2018-10-09T09:48:02.221Z,75.08
2018-10-09T09:50:31.665Z,75.81
2018-10-09T09:53:01.176Z,75.20
2018-10-09T09:55:30.599Z,74.61
2018-10-09T09:58:00.140Z,74.04
2018-10-09T10:00:34.827Z,73.82
2018-10-09T10:03:04.339Z,73.56
2018-10-09T10:05:33.859Z,73.30
2018-10-09T10:08:03.235Z,72.42
2018-10-09T10:10:32.651Z,72.37
2018-10-09T10:13:02.124Z,71.41
2018-10-09T10:15:31.543Z,72.37
2018-10-09T10:18:00.956Z,72.80
2018-10-09T10:20:30.424Z,70.10
2018-10-09T10:22:59.790Z,69.87
2018-10-09T10:25:29.224Z,69.47
2018-10-09T10:27:58.775Z,69.41
2018-10-09T10:30:28.149Z,69.26
2018-10-09T10:32:57.539Z,69.65
2018-10-09T10:35:27.018Z,68.70
2018-10-09T10:37:56.438Z,68.49
2018-10-09T10:40:25.881Z,67.64
2018-10-09T10:42:55.651Z,68.38
2018-10-09T10:45:25.009Z,68.04
2018-10-09T10:47:54.424Z,68.41
2018-10-09T10:50:23.934Z,66.79
2018-10-09T10:52:53.364Z,66.05
2018-10-09T10:55:22.747Z,66.00
2018-10-09T10:57:52.111Z,65.54
2018-10-09T11:00:21.545Z,65.37
2018-10-09T11:02:50.899Z,64.99
2018-10-09T11:05:20.263Z,66.42
2018-10-09T11:07:49.693Z,65.60
2018-10-09T11:10:19.044Z,65.28
2018-10-09T11:12:48.487Z,64.89
2018-10-09T11:15:17.874Z,64.54
2018-10-09T11:17:47.285Z,64.34
2018-10-09T11:20:17.019Z,64.05
2018-10-09T11:22:46.454Z,64.17
2018-10-09T11:25:16.022Z,62.89
2018-10-09T11:27:45.452Z,62.75
2018-10-09T11:30:14.906Z,61.71
2018-10-09T11:32:44.241Z,61.47
2018-10-09T11:35:13.688Z,60.32
2018-10-09T11:37:43.062Z,58.31
2018-10-09T11:40:12.442Z,57.85
2018-10-09T11:42:41.845Z,58.13
2018-10-09T11:45:11.304Z,58.04
2018-10-09T11:47:40.692Z,58.84
2018-10-09T11:50:10.158Z,57.94
2018-10-09T11:52:39.633Z,57.37
2018-10-09T11:55:09.033Z,56.84
2018-10-09T11:57:38.464Z,56.93
2018-10-09T12:00:08.994Z,57.15
2018-10-09T12:02:38.414Z,57.23
2018-10-09T12:05:07.891Z,56.84
2018-10-09T12:07:37.288Z,56.51
2018-10-09T12:10:06.719Z,55.70
2018-10-09T12:12:36.113Z,55.77
2018-10-09T12:15:05.755Z,54.92
2018-10-09T12:17:35.246Z,53.23
2018-10-09T12:20:05.368Z,52.71
2018-10-09T12:22:34.725Z,52.13
2018-10-09T12:25:04.168Z,52.39
2018-10-09T12:27:33.566Z,51.68
2018-10-09T12:30:02.980Z,49.23
2018-10-09T12:32:32.439Z,48.07
2018-10-09T12:35:01.858Z,46.30
2018-10-09T12:37:31.259Z,43.26
2018-10-09T12:40:00.615Z,41.74
2018-10-09T12:42:29.981Z,42.03
2018-10-09T12:44:59.414Z,41.03
2018-10-09T12:47:28.786Z,38.31
2018-10-09T12:49:58.816Z,37.58
2018-10-09T12:52:28.224Z,35.30
2018-10-09T12:54:57.851Z,33.94
2018-10-09T12:57:27.216Z,33.40
2018-10-09T12:59:56.660Z,32.37
2018-10-09T13:02:26.124Z,31.09
2018-10-09T13:04:55.414Z,31.62
2018-10-09T13:07:24.888Z,31.75
2018-10-09T13:09:54.362Z,32.57
2018-10-09T13:12:23.759Z,31.08
2018-10-09T13:14:53.276Z,29.72
2018-10-09T13:17:22.781Z,31.36
2018-10-09T13:19:52.256Z,30.25
2018-10-09T13:22:21.878Z,31.87
2018-10-09T13:24:51.078Z,31.72
2018-10-09T13:27:20.468Z,32.86
2018-10-09T13:29:49.932Z,34.29
2018-10-09T13:32:19.355Z,36.56
2018-10-09T13:37:32.373Z,34.93
2018-10-09T13:40:02.703Z,34.82
2018-10-09T13:42:32.143Z,33.75
2018-10-09T13:45:01.481Z,33.84
2018-10-09T13:47:31.087Z,33.39
2018-10-09T13:50:00.291Z,32.79
2018-10-09T13:52:29.714Z,31.95
2018-10-09T13:54:59.101Z,31.52
2018-10-09T13:59:57.016Z,31.75
2018-10-09T14:02:26.406Z,31.23
2018-10-09T14:04:55.822Z,33.65
2018-10-09T14:07:25.444Z,34.31
2018-10-09T14:09:54.846Z,34.49
2018-10-09T14:12:24.190Z,36.21
2018-10-09T14:14:53.736Z,36.94
2018-10-09T14:17:23.106Z,37.63
2018-10-09T14:19:52.592Z,37.40
2018-10-09T14:22:22.548Z,37.27
2018-10-09T14:24:51.955Z,38.45
2018-10-09T14:27:21.389Z,38.34
2018-10-09T14:29:50.764Z,38.38
2018-10-09T14:32:20.180Z,39.24
2018-10-09T14:34:49.596Z,38.79
2018-10-09T14:37:18.965Z,38.17
2018-10-09T14:39:48.345Z,38.45
2018-10-09T14:42:18.142Z,39.09
2018-10-09T14:44:47.597Z,38.34
2018-10-09T14:47:17.014Z,38.61
2018-10-09T14:49:46.483Z,38.74
2018-10-09T14:52:15.886Z,38.78
2018-10-09T14:54:45.278Z,40.68
2018-10-09T14:57:14.655Z,41.60
2018-10-09T14:59:44.038Z,41.05
2018-10-09T15:02:13.503Z,40.74
2018-10-09T15:04:42.948Z,41.94
2018-10-09T15:07:12.409Z,41.49
2018-10-09T15:09:41.895Z,43.56
2018-10-09T15:12:11.248Z,43.12
2018-10-09T15:14:40.629Z,43.60
2018-10-09T15:17:10.150Z,43.31
2018-10-09T15:19:39.420Z,43.03
2018-10-09T15:22:08.874Z,43.06
2018-10-09T15:24:38.249Z,43.23
2018-10-09T15:27:07.644Z,43.53
2018-10-09T15:29:37.067Z,42.75
2018-10-09T15:32:06.458Z,43.73
2018-10-09T15:34:35.904Z,43.63
2018-10-09T15:37:05.273Z,44.70
2018-10-09T15:39:34.771Z,44.63
2018-10-09T15:42:04.223Z,45.54
2018-10-09T15:44:33.653Z,45.37
2018-10-09T15:47:03.036Z,45.68
2018-10-09T15:49:32.475Z,46.12
2018-10-09T15:52:01.853Z,46.36
2018-10-09T15:54:31.254Z,47.62
2018-10-09T15:57:00.743Z,48.27
2018-10-09T15:59:30.114Z,48.20
2018-10-09T16:01:59.536Z,48.78
2018-10-09T16:04:28.976Z,49.26
2018-10-09T16:06:58.471Z,50.50
2018-10-09T16:09:28.004Z,52.42
2018-10-09T16:11:57.379Z,53.31
2018-10-09T16:14:26.783Z,53.72
2018-10-09T16:16:56.204Z,55.77
2018-10-09T16:19:25.686Z,55.71
2018-10-09T16:21:55.135Z,55.48
2018-10-09T16:24:24.546Z,57.04
2018-10-09T16:27:00.283Z,56.56
2018-10-09T16:29:29.677Z,58.64
2018-10-09T16:31:59.047Z,59.28
2018-10-09T16:34:28.420Z,59.25
2018-10-09T16:36:57.806Z,60.25
2018-10-09T16:39:27.186Z,60.55
2018-10-09T16:41:56.680Z,59.31
2018-10-09T16:44:26.064Z,60.02
2018-10-09T16:46:55.492Z,60.76
2018-10-09T16:49:24.943Z,63.76
2018-10-09T16:51:54.334Z,63.97
2018-10-09T16:54:23.775Z,64.63
2018-10-09T16:56:53.143Z,65.43
2018-10-09T16:59:22.584Z,65.48
2018-10-09T17:01:51.955Z,67.40
2018-10-09T17:04:21.356Z,68.00
2018-10-09T17:06:50.717Z,67.54
2018-10-09T17:09:20.125Z,68.34
2018-10-09T17:11:49.530Z,68.96
2018-10-09T17:14:19.028Z,70.09
2018-10-09T17:16:48.833Z,70.20
2018-10-09T17:19:18.354Z,70.54
2018-10-09T17:21:48.158Z,71.58
2018-10-09T17:24:17.508Z,71.92
2018-10-09T17:26:46.925Z,71.38
2018-10-09T17:29:16.319Z,72.78
2018-10-09T17:31:45.675Z,73.18
2018-10-09T17:34:15.071Z,72.44
2018-10-09T17:36:44.468Z,72.24
2018-10-09T17:39:14.004Z,74.56
2018-10-09T17:41:43.426Z,73.88
2018-10-09T17:44:12.795Z,74.39
2018-10-09T17:46:42.216Z,74.56
2018-10-09T17:49:11.611Z,74.60
2018-10-09T17:51:40.995Z,76.10
2018-10-09T17:54:11.204Z,75.94
2018-10-09T17:56:40.588Z,76.96
2018-10-09T17:59:10.014Z,76.57
2018-10-09T18:01:39.488Z,76.88
2018-10-09T18:04:09.048Z,76.14
2018-10-09T18:06:38.512Z,77.15
2018-10-09T18:09:11.513Z,77.81
2018-10-09T18:11:41.404Z,78.03
2018-10-09T18:14:11.632Z,78.35
2018-10-09T18:16:41.065Z,78.44
2018-10-09T18:19:10.468Z,77.50
2018-10-09T18:21:39.807Z,77.91
2018-10-09T18:24:09.196Z,78.60
2018-10-09T18:26:38.933Z,78.57
2018-10-09T18:29:08.464Z,78.73
2018-10-09T18:31:37.905Z,79.22
2018-10-09T18:34:07.425Z,80.21
2018-10-09T18:36:36.877Z,81.46
2018-10-09T18:39:11.512Z,82.50
2018-10-09T18:41:41.285Z,83.02
2018-10-09T18:44:10.673Z,83.74
2018-10-09T18:46:40.434Z,83.29
2018-10-09T18:49:10.101Z,82.51
2018-10-09T18:51:39.839Z,81.87
2018-10-09T18:54:09.443Z,82.54
2018-10-09T18:56:38.955Z,83.53
2018-10-09T18:59:08.482Z,83.59
2018-10-09T19:01:38.085Z,83.80
2018-10-09T19:04:07.997Z,83.62
2018-10-09T19:06:37.476Z,83.53
2018-10-09T19:09:10.968Z,83.09
2018-10-09T19:11:40.468Z,83.46
2018-10-09T19:14:09.853Z,83.44
2018-10-09T19:16:39.331Z,84.68
2018-10-09T19:19:08.790Z,84.49
2018-10-09T19:21:38.311Z,85.00
2018-10-09T19:24:08.147Z,84.92
2018-10-09T19:26:37.601Z,84.53
2018-10-09T19:29:07.035Z,85.23
2018-10-09T19:31:36.452Z,84.55
2018-10-09T19:34:06.215Z,85.63
2018-10-09T19:36:35.648Z,85.57
2018-10-09T19:39:08.230Z,86.42
2018-10-09T19:41:37.600Z,86.46
2018-10-09T19:44:07.016Z,86.77
2018-10-09T19:46:36.963Z,86.86
2018-10-09T19:49:06.444Z,87.29
2018-10-09T19:51:35.946Z,87.31
2018-10-09T19:54:05.382Z,87.26
2018-10-09T19:56:34.759Z,87.06
2018-10-09T19:59:04.293Z,87.72
2018-10-09T20:01:33.997Z,87.46
2018-10-09T20:04:03.466Z,87.53
2018-10-09T20:06:33.105Z,87.56
2018-10-09T20:09:02.607Z,87.01
2018-10-09T20:11:32.073Z,86.55
2018-10-09T20:14:01.501Z,86.95
2018-10-09T20:16:30.980Z,86.38
2018-10-09T20:19:00.375Z,87.30
2018-10-09T20:21:29.756Z,87.26
2018-10-09T20:23:59.165Z,86.36
2018-10-09T20:26:28.661Z,87.26
2018-10-09T20:28:58.045Z,87.25
2018-10-09T20:31:27.547Z,87.72
2018-10-09T20:33:56.947Z,88.23
2018-10-09T20:36:26.519Z,87.81
2018-10-09T20:38:55.975Z,87.41
2018-10-09T20:41:25.388Z,86.76
2018-10-09T20:43:54.807Z,89.00
2018-10-09T20:46:24.279Z,88.50
2018-10-09T20:48:53.638Z,88.41
2018-10-09T20:51:23.058Z,88.10
2018-10-09T20:53:52.452Z,88.68
2018-10-09T20:56:21.818Z,88.34
2018-10-09T20:58:51.274Z,88.59
2018-10-09T21:01:20.755Z,89.92
2018-10-09T21:03:50.148Z,89.91
2018-10-09T21:06:19.581Z,90.58
2018-10-09T21:08:49.225Z,90.52
2018-10-09T21:11:18.638Z,89.06
2018-10-09T21:13:47.983Z,89.34
2018-10-09T21:16:17.362Z,89.37
2018-10-09T21:18:46.755Z,89.94
2018-10-09T21:21:16.219Z,89.69
2018-10-09T21:23:45.620Z,89.94
2018-10-09T21:26:14.959Z,89.65
2018-10-09T21:28:44.358Z,90.36
2018-10-09T21:31:13.723Z,90.48
2018-10-09T21:33:43.137Z,90.45
2018-10-09T21:36:12.492Z,90.99
2018-10-09T21:38:41.947Z,91.35
2018-10-09T21:41:11.316Z,91.08
2018-10-09T21:43:40.759Z,91.38
2018-10-09T21:46:10.158Z,91.17
2018-10-09T21:48:39.544Z,90.49
2018-10-09T21:51:09.004Z,89.76
2018-10-09T21:53:38.390Z,90.90
2018-10-09T21:56:07.835Z,91.06
2018-10-09T21:58:37.184Z,89.86
2018-10-09T22:01:11.395Z,90.17
2018-10-09T22:03:41.495Z,88.89
2018-10-09T22:06:11.315Z,88.72
2018-10-09T22:08:40.692Z,88.96
2018-10-09T22:11:10.041Z,88.36
2018-10-09T22:13:39.419Z,89.78
2018-10-09T22:16:08.803Z,89.85
2018-10-09T22:18:38.207Z,88.55
2018-10-09T22:21:07.792Z,88.70
2018-10-09T22:23:37.203Z,88.96
2018-10-09T22:26:06.592Z,89.77
2018-10-09T22:28:35.967Z,89.57
2018-10-09T22:31:05.389Z,90.18
2018-10-09T22:33:34.801Z,89.86
2018-10-09T22:36:04.162Z,89.28
2018-10-09T22:38:33.625Z,88.84
2018-10-09T22:41:02.961Z,88.73
2018-10-09T22:43:32.298Z,89.63
2018-10-09T22:46:02.030Z,89.54
2018-10-09T22:48:31.427Z,89.93
2018-10-09T22:51:00.802Z,90.11
2018-10-09T22:53:30.287Z,90.46
2018-10-09T22:55:59.663Z,90.96
2018-10-09T22:58:29.024Z,90.46
2018-10-09T23:00:58.371Z,89.95
2018-10-09T23:03:27.818Z,90.10
2018-10-09T23:05:57.183Z,89.65
2018-10-09T23:08:26.535Z,90.20
2018-10-09T23:10:55.925Z,90.09
2018-10-09T23:13:25.235Z,90.56
2018-10-09T23:15:54.590Z,91.72
2018-10-09T23:18:23.967Z,91.65
2018-10-09T23:20:53.360Z,91.10
2018-10-09T23:23:22.678Z,91.69
2018-10-09T23:25:52.024Z,92.12
2018-10-09T23:28:21.413Z,92.58
2018-10-09T23:30:50.786Z,92.57
2018-10-09T23:33:26.910Z,92.04
2018-10-09T23:35:56.248Z,91.77
2018-10-09T23:38:25.613Z,90.98
2018-10-09T23:40:54.995Z,92.32
2018-10-09T23:43:24.376Z,92.35
2018-10-09T23:45:53.780Z,91.47
2018-10-09T23:48:23.195Z,91.44
2018-10-09T23:50:52.703Z,92.62
2018-10-09T23:53:22.045Z,92.28
2018-10-09T23:55:51.431Z,92.67
2018-10-09T23:58:20.777Z,92.59
